Bryn Gates Airfield

GB-0310 · Anglia, Wielka Brytania

Historia METAR GB-0310 · Bryn Gates Airfield

Poniżej widzisz METAR-y z ostatnich kilku dni. Wybierz rok, aby przeglądać starsze METAR-y, począwszy od roku 2007.

14 czerwca 2024

Czas Kod Pogoda Temp. Widoczność Sufit Wiatr METAR/SPECI
09:50
V
13 °C 10 km+ - 210° 210° 10 kt METAR EGGP 140850Z 21010KT 9999 VCSH FEW025 13/11 Q0997
09:20
M
13 °C 10 km+ 2.400 ft 200° 200° 11 kt METAR EGGP 140820Z 20011KT 9999 VCSH FEW009 BKN024 13/12 Q0997
08:50
M
13 °C 8 km 2.400 ft 200° 200° 10 kt METAR EGGP 140750Z 20010KT 8000 -RA SCT014 BKN024 13/12 Q0997 RERA
08:20
V
14 °C 10 km+ 3.800 ft 200° 200° 9 kt METAR EGGP 140720Z 20009KT 9999 9000NW -RA FEW013 SCT031 BKN038 14/12 Q0996
07:50
V
14 °C 10 km+ - 190° 190° 9 kt METAR EGGP 140650Z 19009KT 9999 VCSH SCT024 SCT041 14/12 Q0996
07:20
V
13 °C 10 km+ - 200° 200° 8 kt METAR EGGP 140620Z 20008KT 9999 SCT024 SCT038 13/12 Q0997
06:50
V
13 °C 10 km+ 4.000 ft 170° 170° 7 kt METAR EGGP 140550Z 17007KT 9999 SCT024 BKN040 13/12 Q0997
06:20
V
13 °C 10 km+ - 170° 170° 7 kt METAR EGGP 140520Z 17007KT 9999 FEW030 13/12 Q0997
05:50
V
12 °C 10 km+ - 180° 180° 8 kt METAR EGGP 140450Z 18008KT 9999 FEW046 12/11 Q0997
05:20
V
12 °C 10 km+ - 180° 180° 10 kt METAR EGGP 140420Z AUTO 18010KT 9999 SCT037/// SCT043/// 12/11 Q0997
04:50
V
13 °C 10 km+ 3.700 ft 190° 190° 12 kt METAR EGGP 140350Z AUTO 19012KT 9999 BKN037/// BKN045/// 13/12 Q0997
04:20
V
12 °C 10 km+ - 190° 190° 12 kt METAR EGGP 140320Z AUTO 19012KT 9999 SCT041/// 12/11 Q0997
03:50
V
13 °C 10 km+ - 190° 190° 12 kt METAR EGGP 140250Z AUTO 19012KT 9999 SCT044/// 13/11 Q0997
03:20
V
13 °C 10 km+ 4.400 ft 190° 190° 8 kt METAR EGGP 140220Z AUTO 19008KT 160V220 9999 BKN044/// 13/11 Q0997
02:50
V
13 °C 10 km+ 3.500 ft 200° 200° 12 kt METAR EGGP 140150Z 20012KT 9999 -RA FEW017 SCT023 BKN035 13/11 Q0998
02:20
V
13 °C 10 km+ 3.200 ft 190° 190° 9 kt METAR EGGP 140120Z 19009KT 9999 -RA BKN032 BKN041 13/12 Q0998
01:50
M
13 °C 10 km+ 2.300 ft 170° 170° 10 kt METAR EGGP 140050Z 17010KT 9999 BKN023 OVC032 13/11 Q0998
01:20
M
13 °C 10 km+ 2.000 ft 170° 170° 8 kt METAR EGGP 140020Z 17008KT 9999 SCT011 OVC020 13/11 Q0998
00:50
V
12 °C 10 km+ 4.900 ft 170° 170° 11 kt METAR EGGP 132350Z 17011KT 9999 FEW019 BKN049 12/11 Q0998
00:20
V
12 °C 10 km+ 4.900 ft 170° 170° 11 kt METAR EGGP 132320Z 17011KT 9999 FEW019 BKN049 12/11 Q0999

13 czerwca 2024

Czas Kod Pogoda Temp. Widoczność Sufit Wiatr METAR/SPECI
23:20
M
12 °C 10 km+ 2.400 ft 170° 170° 10 kt METAR EGGP 132220Z 17010KT 9999 SCT015 OVC024 12/10 Q0999
22:50
M
13 °C 10 km+ 2.400 ft 170° 170° 12 kt METAR EGGP 132150Z 17012KT 9999 SCT015 OVC024 13/10 Q0999
22:20
M
13 °C 10 km+ 2.700 ft 160° 160° 14 kt METAR EGGP 132120Z 16014KT 9999 FEW017 OVC027 13/10 Q0999
21:50
M
13 °C 10 km+ 2.900 ft 170° 170° 15 kt METAR EGGP 132050Z 17015KT 9999 BKN029 OVC034 13/10 Q1000
21:20
V
12 °C 10 km+ 3.800 ft 170° 170° 15 kt METAR EGGP 132020Z 17015KT 9999 FEW017 BKN038 12/10 Q1000
20:50
V
12 °C 10 km+ 3.800 ft 170° 170° 15 kt METAR EGGP 131950Z 17015KT 9999 FEW017 BKN038 12/10 Q1000
20:20
V
13 °C 10 km+ 4.200 ft 170° 170° 17 kt METAR EGGP 131920Z 17017KT 9999 SCT018 BKN042 13/10 Q1000
19:50
V
13 °C 10 km+ - 170° 170° 19 - 30 kt METAR EGGP 131850Z 17019G30KT 9999 FEW029 SCT043 13/09 Q1000
19:20
V
13 °C 10 km+ 4.800 ft 170° 170° 17 kt METAR EGGP 131820Z 17017KT 9999 FEW022 SCT027 BKN048 13/09 Q1001
18:20
M
13 °C 10 km+ 2.800 ft 160° 160° 18 kt METAR EGGP 131720Z 16018KT 9999 FEW021 BKN028 13/09 Q1001
17:50
M
12 °C 10 km+ 2.700 ft 160° 160° 17 - 28 kt METAR EGGP 131650Z 16017G28KT 9999 -RA SCT021 BKN027 12/09 Q1002
16:50
V
12 °C 10 km+ - 160° 160° 17 kt METAR EGGP 131550Z 16017KT 9999 -SHRA FEW040 SCT048 12/09 Q1003
16:20
V
12 °C 9 km - 150° 150° 17 kt METAR EGGP 131520Z 15017KT 9000 -RA FEW034 SCT047 12/10 Q1004
15:50
V
13 °C 10 km+ - 150° 150° 16 kt METAR EGGP 131450Z 15016KT 9999 VCSH SCT038 13/09 Q1005
15:20
V
13 °C 10 km+ 4.300 ft 150° 150° 16 kt METAR EGGP 131420Z 15016KT 9999 -RA FEW036 BKN043 13/10 Q1005
14:50
V
14 °C 10 km+ - 150° 150° 14 kt METAR EGGP 131350Z 15014KT 9999 SCT044 14/09 Q1006
14:20
V
13 °C 10 km+ - 140° 140° 14 kt METAR EGGP 131320Z 14014KT 9999 SCT025 SCT040 13/10 Q1006
13:50
V
13 °C 10 km+ 4.600 ft 140° 140° 13 kt METAR EGGP 131250Z 14013KT 9999 -RA BKN046 13/10 Q1007
13:20
V
13 °C 10 km+ - 160° 160° 14 kt METAR EGGP 131220Z 16014KT 9999 -RA SCT025 SCT040 13/09 Q1008
12:50
V
14 °C 10 km+ - 170° 170° 14 kt METAR EGGP 131150Z 17014KT 9999 SCT030 14/08 Q1008
12:20
V
13 °C 10 km+ - 170° 170° 13 kt METAR EGGP 131120Z 17013KT 9999 SCT030 13/08 Q1009
11:50
V
14 °C 10 km+ - 170° 170° 13 kt METAR EGGP 131050Z 17013KT 9999 SCT031 14/08 Q1009
11:20
V
14 °C 10 km+ - 180° 180° 13 kt METAR EGGP 131020Z 18013KT 140V200 9999 SCT030 14/08 Q1009
10:50
V
14 °C 10 km+ - 180° 180° 13 kt METAR EGGP 130950Z 18013KT 9999 FEW030 14/08 Q1010
10:20
V
14 °C 10 km+ - 170° 170° 11 kt METAR EGGP 130920Z 17011KT 140V200 9999 FEW040 14/08 Q1010
09:50
V
13 °C 10 km+ - 160° 160° 11 kt METAR EGGP 130850Z 16011KT 140V200 CAVOK 13/08 Q1011
09:20
V
12 °C 10 km+ - 180° 180° 12 kt METAR EGGP 130820Z 18012KT 9999 FEW049 12/08 Q1011
08:50
V
12 °C 10 km+ - 180° 180° 13 kt METAR EGGP 130750Z 18013KT CAVOK 12/08 Q1011
08:20
V
11 °C 10 km+ - 160° 160° 8 kt METAR EGGP 130720Z 16008KT CAVOK 11/08 Q1012
07:50
V
10 °C 10 km+ - 160° 160° 8 kt METAR EGGP 130650Z 16008KT 9999 SCT038 10/07 Q1012
07:20
V
9 °C 10 km+ - 170° 170° 8 kt METAR EGGP 130620Z 17008KT 9999 SCT040 09/06 Q1012
06:50
V
9 °C 10 km+ - 170° 170° 9 kt METAR EGGP 130550Z 17009KT 9999 SCT040 09/06 Q1012
06:20
V
8 °C 10 km+ - 160° 160° 7 kt METAR EGGP 130520Z 16007KT 110V190 CAVOK 08/06 Q1013
05:50
V
8 °C 10 km+ - 170° 170° 8 kt METAR EGGP 130450Z 17008KT CAVOK 08/06 Q1013
05:20
V
8 °C 10 km+ - 160° 160° 7 kt METAR EGGP 130420Z 16007KT CAVOK 08/06 Q1013
04:50
V
7 °C 10 km+ - Var Var 2 kt METAR EGGP 130350Z AUTO VRB02KT 9999 NCD 07/05 Q1014
04:20
V
7 °C 10 km+ - 150° 150° 5 kt METAR EGGP 130320Z AUTO 15005KT 9999 FEW047/// 07/05 Q1014
03:50
V
8 °C 10 km+ 4.700 ft 150° 150° 6 kt METAR EGGP 130250Z AUTO 15006KT 9999 BKN047/// 08/05 Q1015
03:20
V
8 °C 10 km+ - 180° 180° 7 kt METAR EGGP 130220Z AUTO 18007KT 9999 SCT047/// 08/06 Q1015
02:50
V
8 °C 10 km+ - 190° 190° 4 kt METAR EGGP 130150Z AUTO 19004KT 9999 FEW047/// 08/06 Q1016
02:20
V
8 °C 10 km+ - 170° 170° 4 kt METAR EGGP 130120Z 17004KT 150V210 9999 FEW046 08/06 Q1016
01:50
V
9 °C 10 km+ 4.600 ft 160° 160° 4 kt METAR EGGP 130050Z 16004KT 9999 OVC046 09/06 Q1016
01:20
V
9 °C 10 km+ - 190° 190° 4 kt METAR EGGP 130020Z 19004KT 9999 SCT046 09/07 Q1017
00:50
V
8 °C 10 km+ - 200° 200° 4 kt METAR EGGP 122350Z 20004KT 9999 SCT046 08/07 Q1017
00:20
V
8 °C 10 km+ - 200° 200° 5 kt METAR EGGP 122320Z 20005KT CAVOK 08/06 Q1017

12 czerwca 2024

Czas Kod Pogoda Temp. Widoczność Sufit Wiatr METAR/SPECI
23:50
V
9 °C 10 km+ 3.500 ft 250° 250° 4 kt METAR EGGP 122250Z 25004KT 9999 BKN035 09/06 Q1018
23:20
V
9 °C 10 km+ - 250° 250° 4 kt METAR EGGP 122220Z 25004KT 9999 SCT035 09/06 Q1018
22:50
V
8 °C 10 km+ - 270° 270° 5 kt METAR EGGP 122150Z 27005KT CAVOK 08/05 Q1018
22:20
V
9 °C 10 km+ - 290° 290° 5 kt METAR EGGP 122120Z 29005KT 9999 FEW036 09/05 Q1018
21:50
V
10 °C 10 km+ - 300° 300° 4 kt METAR EGGP 122050Z 30004KT 260V340 9999 FEW036 10/05 Q1018
20:50
V
11 °C 10 km+ - 310° 310° 6 kt METAR EGGP 121950Z 31006KT 9999 FEW036 11/05 Q1018
20:20
V
12 °C 10 km+ - 310° 310° 6 kt METAR EGGP 121920Z 31006KT 290V350 9999 FEW036 12/05 Q1019
19:50
V
12 °C 10 km+ - 310° 310° 9 kt METAR EGGP 121850Z 31009KT 280V340 9999 FEW036 12/05 Q1019
19:20
V
13 °C 10 km+ - 290° 290° 9 kt METAR EGGP 121820Z 29009KT 9999 FEW036 13/06 Q1019
18:50
V
13 °C 10 km+ - 290° 290° 9 kt METAR EGGP 121750Z 29009KT 9999 FEW036 13/06 Q1019
18:20
V
14 °C 10 km+ - 300° 300° 9 kt METAR EGGP 121720Z 30009KT 9999 FEW036 14/05 Q1019
17:50
V
15 °C 10 km+ - 300° 300° 9 kt METAR EGGP 121650Z 30009KT 280V340 9999 FEW038 SCT048 15/06 Q1019
17:20
V
14 °C 10 km+ - 310° 310° 10 kt METAR EGGP 121620Z 31010KT 9999 FEW040 SCT046 14/05 Q1019
16:50
V
15 °C 10 km+ - 300° 300° 10 kt METAR EGGP 121550Z 30010KT 9999 SCT047 15/05 Q1020
16:20
V
15 °C 10 km+ - 310° 310° 9 kt METAR EGGP 121520Z 31009KT 9999 FEW047 15/06 Q1020
15:20
V
15 °C 10 km+ - 300° 300° 7 kt METAR EGGP 121420Z 30007KT 270V350 9999 FEW035 15/05 Q1020
14:50
V
15 °C 10 km+ - 290° 290° 10 kt METAR EGGP 121350Z 29010KT 260V330 9999 FEW035 15/06 Q1020
14:20
V
15 °C 10 km+ - 300° 300° 10 kt METAR EGGP 121320Z 30010KT 270V330 9999 FEW040 15/05 Q1021
13:50
V
15 °C 10 km+ - 290° 290° 11 kt METAR EGGP 121250Z 29011KT 260V320 9999 SCT030 SCT045 15/06 Q1021
13:20
V
13 °C 10 km+ 4.900 ft 300° 300° 9 kt METAR EGGP 121220Z 30009KT 270V330 9999 SCT043 BKN049 13/05 Q1021
12:50
V
11 °C 10 km+ 4.300 ft 270° 270° 10 kt METAR EGGP 121150Z 27010KT 9999 FEW035 BKN043 11/05 Q1021
12:20
V
11 °C 10 km+ 4.100 ft 290° 290° 13 kt METAR EGGP 121120Z 29013KT 9999 FEW034 BKN041 11/06 Q1022
11:50
V
13 °C 10 km+ - 300° 300° 13 kt METAR EGGP 121050Z 30013KT 9999 FEW035 SCT046 13/06 Q1021
11:20
V
14 °C 10 km+ - 300° 300° 13 kt METAR EGGP 121020Z 30013KT 270V330 9999 FEW040 14/06 Q1021
10:50
V
14 °C 10 km+ - 270° 270° 10 kt METAR EGGP 120950Z 27010KT 240V300 9999 FEW038 14/06 Q1021
10:20
V
12 °C 10 km+ - 270° 270° 10 kt METAR EGGP 120920Z 27010KT 9999 SCT034 12/04 Q1022
09:50
V
12 °C 10 km+ - 280° 280° 10 kt METAR EGGP 120850Z 28010KT 9999 SCT030 12/05 Q1022
09:20
V
12 °C 10 km+ - 280° 280° 9 kt METAR EGGP 120820Z 28009KT 9999 SCT029 SCT040 12/05 Q1022
08:50
V
12 °C 10 km+ - 290° 290° 10 kt METAR EGGP 120750Z 29010KT 9999 SCT030 12/04 Q1022
08:20
V
12 °C 10 km+ - 300° 300° 8 kt METAR EGGP 120720Z 30008KT 9999 SCT030 12/05 Q1022
07:50
V
12 °C 10 km+ - 310° 310° 6 kt METAR EGGP 120650Z 31006KT 9999 FEW030 12/07 Q1022
07:20
V
11 °C 10 km+ - 300° 300° 8 kt METAR EGGP 120620Z 30008KT 9999 SCT030 SCT040 11/07 Q1022
06:50
V
10 °C 10 km+ - 260° 260° 6 kt METAR EGGP 120550Z 26006KT 9999 SCT028 SCT040 10/08 Q1022
Zgłoś zmianę